createdAt,value
2017-08-12T00:00:25.429Z,90.70
2017-08-12T00:02:52.942Z,81.33
2017-08-12T00:05:20.514Z,85.13
2017-08-12T00:07:48.040Z,78.20
2017-08-12T00:10:15.988Z,87.33
2017-08-12T00:12:43.620Z,77.70
2017-08-12T00:15:11.167Z,90.13
2017-08-12T00:17:38.709Z,102.70
2017-08-12T00:20:06.214Z,94.37
2017-08-12T00:22:33.756Z,85.00
2017-08-12T00:25:01.296Z,85.37
2017-08-12T00:27:28.832Z,81.80
2017-08-12T00:29:56.415Z,96.17
2017-08-12T00:32:23.929Z,97.00
2017-08-12T00:34:51.801Z,92.30
2017-08-12T00:37:19.318Z,89.60
2017-08-12T00:39:46.873Z,85.97
2017-08-12T00:42:14.433Z,86.80
2017-08-12T00:44:43.043Z,77.60
2017-08-12T00:47:10.569Z,87.17
2017-08-12T00:49:38.105Z,79.13
2017-08-12T00:52:05.634Z,71.40
2017-08-12T00:54:33.578Z,81.63
2017-08-12T00:57:01.566Z,64.70
2017-08-12T00:59:29.072Z,75.90
2017-08-12T01:01:56.614Z,81.63
2017-08-12T01:04:24.140Z,73.47
2017-08-12T01:06:51.686Z,71.57
2017-08-12T01:09:19.216Z,73.00
2017-08-12T01:11:46.776Z,72.87
2017-08-12T01:14:14.313Z,68.53
2017-08-12T01:16:41.858Z,65.77
2017-08-12T01:19:09.393Z,68.23
2017-08-12T01:21:37.317Z,70.40
2017-08-12T01:24:04.844Z,70.13
2017-08-12T01:26:32.401Z,70.65
2017-08-12T01:28:59.939Z,74.77
2017-08-12T01:31:27.851Z,72.20
2017-08-12T01:33:56.436Z,65.57
2017-08-12T01:36:23.944Z,77.93
2017-08-12T01:38:51.899Z,76.00
2017-08-12T01:41:19.432Z,76.00
2017-08-12T01:43:46.999Z,65.00
2017-08-12T01:46:14.541Z,67.80
2017-08-12T01:48:42.113Z,67.63
2017-08-12T01:51:09.640Z,83.83
2017-08-12T01:53:37.158Z,69.87
2017-08-12T01:56:04.702Z,77.90
2017-08-12T01:58:32.226Z,71.35
2017-08-12T02:00:59.754Z,67.13
2017-08-12T02:03:27.273Z,76.67
2017-08-12T02:05:54.833Z,68.62
2017-08-12T02:08:22.368Z,69.47
2017-08-12T02:10:49.918Z,77.10
2017-08-12T02:13:17.453Z,69.50
2017-08-12T02:15:45.025Z,68.17
2017-08-12T02:18:12.534Z,61.50
2017-08-12T02:20:40.470Z,63.75
2017-08-12T02:23:08.018Z,58.30
2017-08-12T02:25:35.556Z,77.73
2017-08-12T02:28:03.119Z,81.22
2017-08-12T02:30:30.655Z,74.70
2017-08-12T02:32:58.190Z,68.77
2017-08-12T02:35:26.053Z,73.43
2017-08-12T02:37:53.583Z,78.40
2017-08-12T02:40:21.121Z,78.50
2017-08-12T02:42:48.675Z,67.07
2017-08-12T02:45:16.191Z,68.20
2017-08-12T02:47:43.730Z,69.17
2017-08-12T02:50:11.255Z,70.50
2017-08-12T02:52:38.803Z,67.53
2017-08-12T02:55:06.362Z,62.13
2017-08-12T02:57:33.896Z,54.37
2017-08-12T03:00:01.474Z,56.88
2017-08-12T03:02:29.005Z,45.88
2017-08-12T03:04:56.572Z,36.17
2017-08-12T03:07:25.113Z,36.03
2017-08-12T03:09:52.704Z,36.97
2017-08-12T03:12:20.643Z,27.03
2017-08-12T03:14:48.161Z,28.43
2017-08-12T03:17:15.696Z,27.93
2017-08-12T03:19:43.237Z,25.08
2017-08-12T03:22:11.178Z,22.35
2017-08-12T03:24:38.688Z,24.25
2017-08-12T03:27:06.261Z,24.70
2017-08-12T03:29:33.793Z,18.90
2017-08-12T03:32:01.343Z,21.25
2017-08-12T03:34:30.868Z,18.40
2017-08-12T03:36:58.428Z,18.42
2017-08-12T03:39:25.962Z,17.45
2017-08-12T03:41:53.893Z,15.45
2017-08-12T03:44:21.437Z,18.10
2017-08-12T03:46:48.973Z,17.70
2017-08-12T03:49:16.555Z,15.90
2017-08-12T03:51:44.088Z,14.65
2017-08-12T03:54:11.637Z,16.08
2017-08-12T03:56:39.174Z,16.80
2017-08-12T03:59:06.773Z,17.33
2017-08-12T04:01:34.296Z,15.15
2017-08-12T04:04:02.233Z,11.63
2017-08-12T04:06:29.776Z,14.23
2017-08-12T04:08:57.301Z,12.57
2017-08-12T04:11:25.594Z,12.98
2017-08-12T04:13:53.148Z,18.58
2017-08-12T04:16:20.710Z,22.08
2017-08-12T04:18:48.247Z,17.60
2017-08-12T04:21:15.844Z,16.40
2017-08-12T04:23:43.380Z,14.57
2017-08-12T04:26:10.942Z,16.60
2017-08-12T04:28:38.469Z,15.60
2017-08-12T04:31:06.428Z,13.90
2017-08-12T04:33:34.409Z,14.35
2017-08-12T04:36:01.963Z,15.60
2017-08-12T04:38:29.526Z,17.15
2017-08-12T04:40:57.087Z,15.68
2017-08-12T04:43:24.633Z,14.15
2017-08-12T04:45:52.233Z,16.77
2017-08-12T04:48:19.792Z,20.62
2017-08-12T04:50:47.336Z,17.05
2017-08-12T04:53:14.886Z,18.77
2017-08-12T04:55:42.424Z,15.13
2017-08-12T04:58:09.949Z,18.52
2017-08-12T05:00:37.557Z,12.40
2017-08-12T05:03:05.151Z,14.45
2017-08-12T05:05:32.711Z,17.73
2017-08-12T05:08:00.254Z,21.10
2017-08-12T05:10:27.807Z,15.35
2017-08-12T05:12:55.337Z,18.80
2017-08-12T05:15:23.278Z,17.33
2017-08-12T05:17:50.823Z,18.08
2017-08-12T05:20:18.340Z,19.17
2017-08-12T05:22:45.886Z,18.12
2017-08-12T05:25:13.470Z,24.02
2017-08-12T05:27:41.043Z,15.85
2017-08-12T05:30:08.563Z,17.87
2017-08-12T05:32:36.123Z,18.15
2017-08-12T05:35:03.690Z,20.10
2017-08-12T05:37:31.250Z,19.83
2017-08-12T05:39:58.806Z,21.33
2017-08-12T05:42:26.873Z,20.42
2017-08-12T05:44:54.819Z,17.00
2017-08-12T05:47:22.747Z,26.90
2017-08-12T05:49:50.336Z,23.58
2017-08-12T05:52:17.887Z,21.62
2017-08-12T05:54:45.481Z,27.10
2017-08-12T05:57:13.025Z,24.90
2017-08-12T05:59:41.006Z,24.83
2017-08-12T06:02:08.615Z,26.42
2017-08-12T06:04:36.185Z,24.37
2017-08-12T06:07:03.745Z,27.45
2017-08-12T06:09:31.348Z,24.42
2017-08-12T06:11:58.939Z,26.55
2017-08-12T06:14:26.832Z,23.67
2017-08-12T06:16:54.873Z,25.15
2017-08-12T06:19:22.423Z,24.48
2017-08-12T06:21:49.968Z,25.25
2017-08-12T06:24:17.550Z,24.42
2017-08-12T06:26:45.129Z,26.45
2017-08-12T06:29:12.673Z,23.35
2017-08-12T06:31:40.218Z,22.20
2017-08-12T06:34:07.768Z,23.75
2017-08-12T06:36:35.291Z,26.48
2017-08-12T06:39:03.257Z,21.23
2017-08-12T06:41:31.181Z,20.77
2017-08-12T06:43:58.824Z,24.73
2017-08-12T06:46:27.066Z,24.50
2017-08-12T06:48:55.097Z,20.50
2017-08-12T06:51:22.719Z,21.73
2017-08-12T06:53:50.247Z,25.40
2017-08-12T06:56:17.823Z,23.40
2017-08-12T06:58:45.386Z,21.83
2017-08-12T07:01:13.374Z,20.03
2017-08-12T07:03:40.893Z,15.88
2017-08-12T07:06:08.471Z,19.60
2017-08-12T07:08:36.029Z,20.75
2017-08-12T07:11:03.571Z,20.17
2017-08-12T07:13:31.202Z,20.90
2017-08-12T07:15:58.777Z,26.85
2017-08-12T07:18:26.352Z,20.65
2017-08-12T07:20:53.884Z,17.27
2017-08-12T07:23:21.433Z,23.40
2017-08-12T07:25:48.969Z,18.10
2017-08-12T07:28:16.574Z,25.42
2017-08-12T07:30:44.297Z,19.80
2017-08-12T07:33:11.861Z,20.90
2017-08-12T07:35:39.417Z,24.17
2017-08-12T07:38:06.975Z,22.60
2017-08-12T07:40:34.550Z,18.98
2017-08-12T07:43:02.083Z,22.92
2017-08-12T07:45:29.634Z,19.52
2017-08-12T07:48:22.014Z,23.62
2017-08-12T07:50:49.621Z,19.33
2017-08-12T07:53:17.167Z,23.83
2017-08-12T07:55:44.731Z,26.90
2017-08-12T07:58:12.275Z,22.98
2017-08-12T08:00:40.197Z,20.05
2017-08-12T08:03:07.746Z,24.25
2017-08-12T08:05:35.274Z,30.63
2017-08-12T08:08:02.808Z,23.00
2017-08-12T08:10:30.716Z,19.00
2017-08-12T08:12:58.301Z,20.90
2017-08-12T08:15:26.560Z,20.20
2017-08-12T08:17:54.152Z,22.27
2017-08-12T08:20:21.696Z,20.85
2017-08-12T08:22:49.625Z,25.02
2017-08-12T08:25:17.195Z,22.75
2017-08-12T08:27:44.812Z,25.30
2017-08-12T08:30:12.723Z,23.02
2017-08-12T08:32:40.280Z,23.38
2017-08-12T08:35:07.826Z,19.65
2017-08-12T08:37:35.358Z,17.40
2017-08-12T08:40:03.296Z,22.50
2017-08-12T08:42:31.212Z,16.23
2017-08-12T08:44:58.763Z,15.65
2017-08-12T08:47:27.145Z,16.62
2017-08-12T08:49:55.661Z,15.85
2017-08-12T08:52:23.213Z,13.50
2017-08-12T08:54:50.778Z,12.83
2017-08-12T08:57:18.301Z,10.07
2017-08-12T08:59:45.847Z,10.60
2017-08-12T09:02:13.821Z,9.98
2017-08-12T09:04:41.380Z,11.00
2017-08-12T09:07:08.952Z,10.97
2017-08-12T09:09:36.505Z,8.90
2017-08-12T09:12:04.059Z,8.90
2017-08-12T09:14:31.620Z,10.20
2017-08-12T09:16:59.233Z,7.70
2017-08-12T09:19:26.787Z,9.27
2017-08-12T09:21:55.156Z,9.10
2017-08-12T09:24:22.677Z,21.23
2017-08-12T09:26:50.229Z,8.27
2017-08-12T09:29:17.805Z,8.90
2017-08-12T09:31:45.370Z,8.60
2017-08-12T09:34:12.994Z,7.93
2017-08-12T09:36:40.901Z,11.23
2017-08-12T09:39:08.453Z,9.10
2017-08-12T09:41:35.982Z,6.50
2017-08-12T09:44:04.034Z,8.87
2017-08-12T09:46:31.557Z,8.63
2017-08-12T09:49:00.217Z,6.33
2017-08-12T09:51:27.736Z,8.15
2017-08-12T09:53:55.715Z,7.60
2017-08-12T09:56:23.653Z,7.87
2017-08-12T09:58:51.257Z,7.10
2017-08-12T10:01:18.822Z,9.57
2017-08-12T10:03:46.328Z,6.53
2017-08-12T10:06:13.954Z,8.80
2017-08-12T10:08:41.495Z,9.80
2017-08-12T10:11:09.044Z,8.18
2017-08-12T10:13:36.655Z,10.67
2017-08-12T10:16:04.278Z,11.00
2017-08-12T10:18:31.797Z,9.70
2017-08-12T10:20:59.374Z,10.73
2017-08-12T10:23:27.304Z,10.40
2017-08-12T10:25:55.643Z,11.67
2017-08-12T10:28:23.194Z,12.30
2017-08-12T10:30:50.755Z,8.90
2017-08-12T10:33:18.291Z,11.10
2017-08-12T10:35:45.825Z,9.20
2017-08-12T10:38:13.431Z,11.73
2017-08-12T10:40:40.990Z,11.03
2017-08-12T10:43:08.542Z,9.90
2017-08-12T10:45:36.473Z,7.90
2017-08-12T10:48:04.014Z,8.10
2017-08-12T10:50:31.532Z,9.20
2017-08-12T10:52:59.068Z,10.37
2017-08-12T10:55:27.019Z,8.27
2017-08-12T10:57:54.643Z,9.57
2017-08-12T11:00:22.175Z,9.80
2017-08-12T11:02:50.272Z,9.30
2017-08-12T11:05:17.850Z,11.03
2017-08-12T11:07:45.397Z,12.13
2017-08-12T11:10:13.755Z,8.90
2017-08-12T11:12:41.337Z,11.07
2017-08-12T11:15:09.004Z,8.30
2017-08-12T11:17:36.661Z,10.33
2017-08-12T11:20:04.219Z,10.27
2017-08-12T11:22:31.765Z,10.67
2017-08-12T11:24:59.489Z,9.00
2017-08-12T11:27:27.252Z,9.70
2017-08-12T11:29:55.638Z,9.23
2017-08-12T11:32:23.169Z,8.13
2017-08-12T11:34:51.017Z,9.10
2017-08-12T11:37:18.584Z,11.40
2017-08-12T11:39:46.182Z,9.50
2017-08-12T11:42:13.708Z,10.77
2017-08-12T11:44:41.618Z,11.37
2017-08-12T11:47:09.174Z,10.97
2017-08-12T11:49:36.715Z,12.57
2017-08-12T11:52:04.298Z,11.40
2017-08-12T11:54:31.801Z,10.13
2017-08-12T11:56:59.352Z,12.23
2017-08-12T11:59:26.947Z,13.73
2017-08-12T12:01:54.595Z,12.60
2017-08-12T12:04:23.167Z,13.90
2017-08-12T12:06:51.246Z,12.83
2017-08-12T12:09:18.880Z,13.50
2017-08-12T12:11:46.852Z,14.00
2017-08-12T12:14:14.389Z,18.23
2017-08-12T12:16:42.136Z,14.80
2017-08-12T12:19:09.786Z,12.57
2017-08-12T12:21:37.488Z,18.50
2017-08-12T12:24:05.103Z,15.90
2017-08-12T12:26:32.665Z,13.37
2017-08-12T12:29:00.298Z,14.90
2017-08-12T12:31:28.210Z,12.10
2017-08-12T12:33:55.819Z,13.67
2017-08-12T12:36:23.754Z,13.20
2017-08-12T12:38:51.365Z,13.70
2017-08-12T12:41:19.386Z,12.13
2017-08-12T12:43:46.903Z,11.93
2017-08-12T12:46:14.438Z,14.10
2017-08-12T12:48:42.222Z,14.03
2017-08-12T12:51:09.961Z,17.63
2017-08-12T12:53:37.570Z,18.10
2017-08-12T12:56:05.307Z,17.30
2017-08-12T12:58:32.879Z,18.57
2017-08-12T13:01:00.557Z,16.47
2017-08-12T13:03:28.139Z,17.13
2017-08-12T13:05:55.747Z,15.63
2017-08-12T13:08:23.486Z,13.37
2017-08-12T13:10:51.013Z,13.33
2017-08-12T13:13:18.834Z,15.17
2017-08-12T13:15:46.415Z,13.50
2017-08-12T13:18:13.992Z,16.97
2017-08-12T13:20:41.512Z,15.47
2017-08-12T13:23:09.264Z,17.70
2017-08-12T13:25:36.830Z,19.90
2017-08-12T13:28:04.470Z,19.07
2017-08-12T13:30:32.416Z,17.20
2017-08-12T13:32:59.954Z,17.10
2017-08-12T13:35:27.519Z,19.10
2017-08-12T13:37:55.044Z,19.07
2017-08-12T13:40:22.579Z,18.03
2017-08-12T13:42:50.261Z,19.73
2017-08-12T13:45:17.851Z,18.97
2017-08-12T13:47:45.376Z,18.10
2017-08-12T13:50:12.917Z,18.70
2017-08-12T13:52:40.509Z,16.33
2017-08-12T13:55:08.094Z,16.53
2017-08-12T13:57:35.642Z,17.20
2017-08-12T14:00:03.246Z,13.87
2017-08-12T14:02:30.834Z,16.80
2017-08-12T14:04:59.319Z,17.00
2017-08-12T14:07:26.920Z,20.43
2017-08-12T14:09:54.544Z,18.13
2017-08-12T14:12:22.079Z,21.10
2017-08-12T14:14:51.118Z,20.10
2017-08-12T14:17:19.868Z,19.97
2017-08-12T14:19:47.406Z,21.67
2017-08-12T14:22:15.010Z,20.73
2017-08-12T14:24:42.588Z,20.27
2017-08-12T14:27:10.946Z,20.43
2017-08-12T14:29:38.469Z,21.30
2017-08-12T14:32:06.010Z,21.10
2017-08-12T14:34:33.662Z,19.80
2017-08-12T14:37:01.553Z,16.10
2017-08-12T14:39:29.090Z,18.70
2017-08-12T14:41:57.036Z,19.27
2017-08-12T14:44:24.820Z,19.70
2017-08-12T14:46:52.826Z,15.10
2017-08-12T14:49:20.433Z,17.63
2017-08-12T14:51:48.988Z,17.13
2017-08-12T14:54:17.293Z,16.70
2017-08-12T14:56:44.966Z,18.60
2017-08-12T14:59:12.582Z,16.30
2017-08-12T15:01:40.233Z,16.10
2017-08-12T15:04:07.825Z,16.47
2017-08-12T15:06:35.627Z,13.63
2017-08-12T15:09:03.289Z,11.73
2017-08-12T15:11:31.370Z,11.27
2017-08-12T15:13:58.909Z,12.57
2017-08-12T15:16:26.656Z,10.17
2017-08-12T15:18:54.252Z,10.73
2017-08-12T15:21:21.971Z,8.83
2017-08-12T15:23:49.795Z,9.83
2017-08-12T15:26:17.610Z,8.13
2017-08-12T15:28:45.164Z,8.57
2017-08-12T15:31:12.688Z,7.30
2017-08-12T15:33:40.248Z,6.70
2017-08-12T15:36:07.877Z,5.70
2017-08-12T15:38:35.521Z,6.60
2017-08-12T15:41:04.512Z,5.80
2017-08-12T15:43:32.829Z,4.60
2017-08-12T15:46:00.378Z,5.83
2017-08-12T15:48:31.622Z,5.70
2017-08-12T15:51:05.634Z,5.73
2017-08-12T15:56:06.265Z,5.87
2017-08-12T15:58:34.660Z,6.20
2017-08-12T16:01:02.282Z,5.90
2017-08-12T16:03:32.421Z,6.77
2017-08-12T16:06:03.882Z,8.53
2017-08-12T16:08:31.979Z,8.03
2017-08-12T16:11:00.971Z,6.60
2017-08-12T16:13:29.454Z,6.20
2017-08-12T16:15:57.220Z,6.43
2017-08-12T16:18:25.956Z,5.83
2017-08-12T16:20:53.701Z,7.13
2017-08-12T16:23:22.805Z,7.20
2017-08-12T16:25:51.120Z,8.33
2017-08-12T16:28:18.683Z,10.50
2017-08-12T16:30:46.251Z,9.00
2017-08-12T16:33:14.606Z,7.57
2017-08-12T16:35:42.127Z,9.27
2017-08-12T16:38:10.212Z,10.50
2017-08-12T16:40:37.967Z,10.50
2017-08-12T16:43:05.523Z,9.90
2017-08-12T16:45:33.082Z,9.10
2017-08-12T16:48:00.612Z,9.40
2017-08-12T16:50:28.761Z,9.33
2017-08-12T16:52:58.277Z,11.17
2017-08-12T16:55:26.226Z,11.27
2017-08-12T16:57:54.802Z,10.40
2017-08-12T17:00:22.415Z,9.20
2017-08-12T17:02:49.946Z,8.83
2017-08-12T17:05:17.696Z,13.87
2017-08-12T17:07:45.314Z,10.43
2017-08-12T17:10:12.915Z,13.17
2017-08-12T17:12:40.442Z,11.70
2017-08-12T17:15:08.032Z,11.70
2017-08-12T17:17:38.630Z,15.33
2017-08-12T17:20:28.662Z,10.10
2017-08-12T17:22:56.517Z,12.37
2017-08-12T17:25:25.524Z,12.40
2017-08-12T17:27:59.995Z,13.00
2017-08-12T17:30:28.497Z,12.70
2017-08-12T17:32:56.021Z,12.93
2017-08-12T17:35:23.886Z,16.97
2017-08-12T17:37:51.436Z,15.37
2017-08-12T17:40:23.041Z,19.57
2017-08-12T17:43:21.169Z,13.70
2017-08-12T17:56:04.857Z,23.70
2017-08-12T17:58:35.531Z,17.33
2017-08-12T18:01:04.438Z,17.13
2017-08-12T18:03:40.317Z,12.83
2017-08-12T18:06:11.140Z,15.50
2017-08-12T18:11:31.758Z,15.80
2017-08-12T18:13:59.396Z,14.10
2017-08-12T18:16:26.982Z,13.00
2017-08-12T18:18:54.712Z,14.43
2017-08-12T18:21:22.356Z,15.10
2017-08-12T18:23:49.997Z,10.73
2017-08-12T18:26:17.653Z,10.03
2017-08-12T18:28:45.236Z,8.80
2017-08-12T18:31:12.809Z,10.07
2017-08-12T18:33:40.413Z,9.63
2017-08-12T18:36:07.990Z,8.03
2017-08-12T18:38:36.591Z,8.67
2017-08-12T18:41:05.718Z,10.97
2017-08-12T18:43:33.348Z,12.30
2017-08-12T18:46:12.468Z,15.13
2017-08-12T18:49:05.673Z,12.93
2017-08-12T18:51:48.070Z,13.57
2017-08-12T18:54:17.948Z,9.20
2017-08-12T18:56:45.636Z,9.47
2017-08-12T18:59:13.228Z,7.83
2017-08-12T19:01:40.855Z,9.50
2017-08-12T19:04:08.520Z,9.10
2017-08-12T19:06:37.583Z,9.33
2017-08-12T19:09:05.304Z,6.90
2017-08-12T19:11:34.034Z,8.83
2017-08-12T19:14:03.990Z,11.57
2017-08-12T19:16:37.725Z,10.00
2017-08-12T19:21:56.447Z,10.13
2017-08-12T19:24:24.088Z,9.40
2017-08-12T19:26:51.638Z,8.77
2017-08-12T19:29:19.213Z,9.27
2017-08-12T19:31:46.738Z,8.80
2017-08-12T19:34:15.327Z,9.57
2017-08-12T19:36:42.909Z,10.50
2017-08-12T19:39:10.467Z,8.90
2017-08-12T19:41:38.053Z,9.60
2017-08-12T19:44:09.766Z,11.00
2017-08-12T19:46:38.018Z,8.30
2017-08-12T19:49:05.553Z,9.00
2017-08-12T19:51:35.143Z,11.90
2017-08-12T19:54:02.665Z,10.50
2017-08-12T19:56:30.220Z,10.13
2017-08-12T19:58:57.738Z,12.90
2017-08-12T20:01:25.315Z,12.27
2017-08-12T20:03:53.044Z,13.50
2017-08-12T20:06:20.671Z,12.20
2017-08-12T20:08:48.208Z,12.17
2017-08-12T20:11:15.772Z,12.53
2017-08-12T20:13:43.318Z,12.13
2017-08-12T20:16:10.840Z,10.80
2017-08-12T20:18:38.410Z,11.47
2017-08-12T20:21:05.942Z,10.30
2017-08-12T20:23:33.483Z,8.57
2017-08-12T20:26:01.025Z,8.70
2017-08-12T20:28:28.590Z,8.23
2017-08-12T20:30:56.162Z,7.20
2017-08-12T20:33:23.720Z,7.20
2017-08-12T20:35:51.257Z,8.30
2017-08-12T20:38:18.852Z,7.93
2017-08-12T20:40:46.367Z,7.50
2017-08-12T20:43:13.923Z,7.30
2017-08-12T20:45:41.446Z,8.67
2017-08-12T20:48:08.978Z,7.97
2017-08-12T20:50:36.515Z,8.70
2017-08-12T20:53:04.040Z,8.80
2017-08-12T20:55:31.599Z,9.67
2017-08-12T20:57:59.126Z,15.67
2017-08-12T21:00:26.681Z,15.60
2017-08-12T21:02:54.234Z,21.93
2017-08-12T21:05:21.795Z,20.37
2017-08-12T21:07:49.427Z,16.67
2017-08-12T21:10:17.001Z,17.50
2017-08-12T21:12:44.604Z,17.87
2017-08-12T21:15:12.299Z,19.20
2017-08-12T21:17:39.823Z,15.90
2017-08-12T21:20:07.417Z,16.37
2017-08-12T21:22:34.970Z,17.27
2017-08-12T21:25:02.943Z,19.33
2017-08-12T21:27:30.634Z,18.63
2017-08-12T21:29:58.192Z,16.00
2017-08-12T21:32:25.730Z,17.10
2017-08-12T21:34:53.252Z,15.80
2017-08-12T21:37:20.815Z,15.27
2017-08-12T21:39:48.338Z,15.57
2017-08-12T21:42:15.896Z,15.53
2017-08-12T21:44:43.423Z,13.87
2017-08-12T21:47:10.966Z,12.17
2017-08-12T21:49:38.479Z,14.00
2017-08-12T21:52:06.050Z,14.47
2017-08-12T21:54:33.577Z,15.70
2017-08-12T21:57:01.137Z,9.30
2017-08-12T21:59:28.662Z,10.97
2017-08-12T22:01:56.187Z,13.30
2017-08-12T22:04:23.792Z,11.63
2017-08-12T22:06:51.340Z,38.80
2017-08-12T22:09:18.914Z,52.80
2017-08-12T22:11:46.442Z,27.03
2017-08-12T22:14:14.050Z,21.37
2017-08-12T22:16:41.579Z,15.20
2017-08-12T22:19:09.137Z,13.60
2017-08-12T22:21:36.674Z,16.63
2017-08-12T22:24:04.228Z,13.53
2017-08-12T22:26:31.742Z,12.90
2017-08-12T22:28:59.283Z,14.37
2017-08-12T22:31:26.874Z,16.50
2017-08-12T22:33:54.421Z,16.10
2017-08-12T22:36:21.963Z,17.70
2017-08-12T22:38:49.508Z,19.77
2017-08-12T22:41:17.058Z,22.53
2017-08-12T22:43:44.633Z,26.57
2017-08-12T22:46:12.195Z,21.90
2017-08-12T22:48:39.718Z,26.87
2017-08-12T22:51:07.272Z,27.20
2017-08-12T22:53:34.802Z,30.90
2017-08-12T22:56:02.350Z,37.37
2017-08-12T22:58:29.886Z,29.90
2017-08-12T23:00:57.443Z,32.60
2017-08-12T23:03:24.990Z,30.17
2017-08-12T23:05:52.535Z,36.63
2017-08-12T23:08:20.096Z,32.57
2017-08-12T23:10:47.623Z,34.57
2017-08-12T23:13:15.165Z,45.20
2017-08-12T23:15:42.695Z,32.63
2017-08-12T23:18:10.256Z,32.67
2017-08-12T23:20:37.775Z,31.77
2017-08-12T23:23:05.351Z,24.47
2017-08-12T23:25:32.889Z,23.77
2017-08-12T23:28:00.464Z,25.87
2017-08-12T23:30:28.037Z,20.27
2017-08-12T23:32:55.734Z,20.70
2017-08-12T23:35:23.295Z,20.60
2017-08-12T23:37:50.818Z,20.00
2017-08-12T23:40:18.369Z,19.70
2017-08-12T23:42:45.910Z,20.70
2017-08-12T23:45:13.461Z,20.13
2017-08-12T23:47:41.003Z,20.80
2017-08-12T23:50:08.533Z,23.80
2017-08-12T23:52:36.089Z,23.17
2017-08-12T23:55:03.623Z,27.10
2017-08-12T23:57:31.168Z,22.97
2017-08-12T23:59:58.716Z,23.90
